sensor_id;sensor_type;location;lat;lon;timestamp;temperature;humidity
25482;DHT22;13395;50.752;4.268;2022-08-01T00:00:04;22.00;99.90
25482;DHT22;13395;50.752;4.268;2022-08-01T00:02:30;22.00;99.90
25482;DHT22;13395;50.752;4.268;2022-08-01T00:04:57;21.90;99.90
25482;DHT22;13395;50.752;4.268;2022-08-01T00:07:22;21.90;99.90
25482;DHT22;13395;50.752;4.268;2022-08-01T00:09:48;21.90;99.90
25482;DHT22;13395;50.752;4.268;2022-08-01T00:12:14;21.90;99.90
25482;DHT22;13395;50.752;4.268;2022-08-01T00:14:39;21.90;99.90
25482;DHT22;13395;50.752;4.268;2022-08-01T00:17:05;22.00;99.90
25482;DHT22;13395;50.752;4.268;2022-08-01T00:19:31;22.00;99.90
25482;DHT22;13395;50.752;4.268;2022-08-01T00:21:57;22.00;99.90
25482;DHT22;13395;50.752;4.268;2022-08-01T00:24:22;21.90;99.90
25482;DHT22;13395;50.752;4.268;2022-08-01T00:26:48;21.90;99.90
25482;DHT22;13395;50.752;4.268;2022-08-01T00:29:14;21.80;99.90
25482;DHT22;13395;50.752;4.268;2022-08-01T00:31:39;21.70;99.90
25482;DHT22;13395;50.752;4.268;2022-08-01T00:34:05;21.70;99.90
25482;DHT22;13395;50.752;4.268;2022-08-01T00:36:31;21.70;99.90
25482;DHT22;13395;50.752;4.268;2022-08-01T00:38:56;21.80;99.90
25482;DHT22;13395;50.752;4.268;2022-08-01T00:41:22;21.90;99.90
25482;DHT22;13395;50.752;4.268;2022-08-01T00:43:47;21.80;99.90
25482;DHT22;13395;50.752;4.268;2022-08-01T00:46:13;21.90;99.90
25482;DHT22;13395;50.752;4.268;2022-08-01T00:48:39;21.90;99.90
25482;DHT22;13395;50.752;4.268;2022-08-01T00:51:07;21.80;99.90
25482;DHT22;13395;50.752;4.268;2022-08-01T00:53:34;21.90;99.90
25482;DHT22;13395;50.752;4.268;2022-08-01T00:56:00;21.90;99.90
25482;DHT22;13395;50.752;4.268;2022-08-01T00:58:26;21.80;99.90
25482;DHT22;13395;50.752;4.268;2022-08-01T01:00:54;21.80;99.90
25482;DHT22;13395;50.752;4.268;2022-08-01T01:03:21;21.80;99.90
25482;DHT22;13395;50.752;4.268;2022-08-01T01:08:50;21.90;99.90
25482;DHT22;13395;50.752;4.268;2022-08-01T01:11:28;21.90;99.90
25482;DHT22;13395;50.752;4.268;2022-08-01T01:14:01;21.80;99.90
25482;DHT22;13395;50.752;4.268;2022-08-01T01:16:30;21.80;99.90
25482;DHT22;13395;50.752;4.268;2022-08-01T01:19:01;21.90;99.90
25482;DHT22;13395;50.752;4.268;2022-08-01T01:22:08;21.80;99.90
25482;DHT22;13395;50.752;4.268;2022-08-01T01:25:39;21.60;99.90
25482;DHT22;13395;50.752;4.268;2022-08-01T01:30:44;21.60;99.90
25482;DHT22;13395;50.752;4.268;2022-08-01T01:33:12;21.50;99.90
25482;DHT22;13395;50.752;4.268;2022-08-01T01:35:45;21.60;99.90
25482;DHT22;13395;50.752;4.268;2022-08-01T01:38:17;21.60;99.90
25482;DHT22;13395;50.752;4.268;2022-08-01T01:40:45;21.70;99.90
25482;DHT22;13395;50.752;4.268;2022-08-01T01:43:12;21.60;99.90
25482;DHT22;13395;50.752;4.268;2022-08-01T01:45:39;21.60;99.90
25482;DHT22;13395;50.752;4.268;2022-08-01T01:48:06;21.40;99.90
25482;DHT22;13395;50.752;4.268;2022-08-01T01:50:35;21.50;99.90
25482;DHT22;13395;50.752;4.268;2022-08-01T01:53:02;21.50;99.90
25482;DHT22;13395;50.752;4.268;2022-08-01T01:55:28;21.50;99.90
25482;DHT22;13395;50.752;4.268;2022-08-01T01:57:55;21.40;99.90
25482;DHT22;13395;50.752;4.268;2022-08-01T02:00:23;21.40;99.90
25482;DHT22;13395;50.752;4.268;2022-08-01T02:02:51;21.50;99.90
25482;DHT22;13395;50.752;4.268;2022-08-01T02:05:18;21.50;99.90
25482;DHT22;13395;50.752;4.268;2022-08-01T02:07:44;21.60;99.90
25482;DHT22;13395;50.752;4.268;2022-08-01T02:10:12;21.60;99.90
25482;DHT22;13395;50.752;4.268;2022-08-01T02:12:41;21.60;99.90
25482;DHT22;13395;50.752;4.268;2022-08-01T02:15:09;21.60;99.90
25482;DHT22;13395;50.752;4.268;2022-08-01T02:17:45;21.60;99.90
25482;DHT22;13395;50.752;4.268;2022-08-01T02:20:12;21.50;99.90
25482;DHT22;13395;50.752;4.268;2022-08-01T02:22:50;21.60;99.90
25482;DHT22;13395;50.752;4.268;2022-08-01T02:25:25;21.60;99.90
25482;DHT22;13395;50.752;4.268;2022-08-01T02:28:07;21.50;99.90
25482;DHT22;13395;50.752;4.268;2022-08-01T02:30:36;21.50;99.90
25482;DHT22;13395;50.752;4.268;2022-08-01T02:33:19;21.50;99.90
25482;DHT22;13395;50.752;4.268;2022-08-01T02:35:58;21.50;99.90
25482;DHT22;13395;50.752;4.268;2022-08-01T02:38:26;21.50;99.90
25482;DHT22;13395;50.752;4.268;2022-08-01T02:40:54;21.50;99.90
25482;DHT22;13395;50.752;4.268;2022-08-01T02:43:24;21.50;99.90
25482;DHT22;13395;50.752;4.268;2022-08-01T02:45:55;21.50;99.90
25482;DHT22;13395;50.752;4.268;2022-08-01T02:48:25;21.50;99.90
25482;DHT22;13395;50.752;4.268;2022-08-01T02:50:54;21.50;99.90
25482;DHT22;13395;50.752;4.268;2022-08-01T02:53:22;21.40;99.90
25482;DHT22;13395;50.752;4.268;2022-08-01T02:55:50;21.50;99.90
25482;DHT22;13395;50.752;4.268;2022-08-01T02:58:21;21.50;99.90
25482;DHT22;13395;50.752;4.268;2022-08-01T03:00:49;21.50;99.90
25482;DHT22;13395;50.752;4.268;2022-08-01T03:03:15;21.30;99.90
25482;DHT22;13395;50.752;4.268;2022-08-01T03:05:43;21.30;99.90
25482;DHT22;13395;50.752;4.268;2022-08-01T03:08:11;21.30;99.90
25482;DHT22;13395;50.752;4.268;2022-08-01T03:10:40;21.30;99.90
25482;DHT22;13395;50.752;4.268;2022-08-01T03:13:08;21.30;99.90
25482;DHT22;13395;50.752;4.268;2022-08-01T03:15:37;21.20;99.90
25482;DHT22;13395;50.752;4.268;2022-08-01T03:18:06;21.20;99.90
25482;DHT22;13395;50.752;4.268;2022-08-01T03:20:33;21.10;99.90
25482;DHT22;13395;50.752;4.268;2022-08-01T03:23:02;21.00;99.90
25482;DHT22;13395;50.752;4.268;2022-08-01T03:25:29;21.00;99.90
25482;DHT22;13395;50.752;4.268;2022-08-01T03:27:59;21.10;99.90
25482;DHT22;13395;50.752;4.268;2022-08-01T03:30:26;21.00;99.90
25482;DHT22;13395;50.752;4.268;2022-08-01T03:32:52;21.10;99.90
25482;DHT22;13395;50.752;4.268;2022-08-01T03:35:19;21.10;99.90
25482;DHT22;13395;50.752;4.268;2022-08-01T03:37:48;21.00;99.90
25482;DHT22;13395;50.752;4.268;2022-08-01T03:40:30;21.10;99.90
25482;DHT22;13395;50.752;4.268;2022-08-01T03:43:01;21.00;99.90
25482;DHT22;13395;50.752;4.268;2022-08-01T03:45:31;21.10;99.90
25482;DHT22;13395;50.752;4.268;2022-08-01T03:48:01;21.00;99.90
25482;DHT22;13395;50.752;4.268;2022-08-01T03:50:29;20.90;99.90
25482;DHT22;13395;50.752;4.268;2022-08-01T03:53:00;20.80;99.90
25482;DHT22;13395;50.752;4.268;2022-08-01T03:55:27;20.80;99.90
25482;DHT22;13395;50.752;4.268;2022-08-01T03:57:53;20.80;99.90
25482;DHT22;13395;50.752;4.268;2022-08-01T04:00:19;20.70;99.90
25482;DHT22;13395;50.752;4.268;2022-08-01T04:02:46;20.80;99.90
25482;DHT22;13395;50.752;4.268;2022-08-01T04:05:13;20.70;99.90
25482;DHT22;13395;50.752;4.268;2022-08-01T04:07:39;20.70;99.90
25482;DHT22;13395;50.752;4.268;2022-08-01T04:10:06;20.80;99.90
25482;DHT22;13395;50.752;4.268;2022-08-01T04:12:33;20.90;99.90
25482;DHT22;13395;50.752;4.268;2022-08-01T04:14:59;20.80;99.90
25482;DHT22;13395;50.752;4.268;2022-08-01T04:17:24;20.70;99.90
25482;DHT22;13395;50.752;4.268;2022-08-01T04:19:50;20.70;99.90
25482;DHT22;13395;50.752;4.268;2022-08-01T04:22:16;20.60;99.90
25482;DHT22;13395;50.752;4.268;2022-08-01T04:24:46;20.70;99.90
25482;DHT22;13395;50.752;4.268;2022-08-01T04:27:19;20.70;99.90
25482;DHT22;13395;50.752;4.268;2022-08-01T04:29:46;20.70;99.90
25482;DHT22;13395;50.752;4.268;2022-08-01T04:32:13;20.70;99.90
25482;DHT22;13395;50.752;4.268;2022-08-01T04:34:41;20.70;99.90
25482;DHT22;13395;50.752;4.268;2022-08-01T04:37:12;20.70;99.90
25482;DHT22;13395;50.752;4.268;2022-08-01T04:39:42;20.70;99.90
25482;DHT22;13395;50.752;4.268;2022-08-01T04:42:10;20.70;99.90
25482;DHT22;13395;50.752;4.268;2022-08-01T04:44:37;20.70;99.90
25482;DHT22;13395;50.752;4.268;2022-08-01T04:47:03;20.70;99.90
25482;DHT22;13395;50.752;4.268;2022-08-01T04:49:37;20.60;99.90
25482;DHT22;13395;50.752;4.268;2022-08-01T04:52:03;20.70;99.90
25482;DHT22;13395;50.752;4.268;2022-08-01T04:54:30;20.70;99.90
25482;DHT22;13395;50.752;4.268;2022-08-01T04:56:59;20.60;99.90
25482;DHT22;13395;50.752;4.268;2022-08-01T04:59:26;20.60;99.90
25482;DHT22;13395;50.752;4.268;2022-08-01T05:02:14;20.60;99.90
25482;DHT22;13395;50.752;4.268;2022-08-01T05:04:42;20.60;99.90
25482;DHT22;13395;50.752;4.268;2022-08-01T05:07:08;20.50;99.90
25482;DHT22;13395;50.752;4.268;2022-08-01T05:09:34;20.50;99.90
25482;DHT22;13395;50.752;4.268;2022-08-01T05:12:02;20.60;99.90
25482;DHT22;13395;50.752;4.268;2022-08-01T05:14:29;20.50;99.90
25482;DHT22;13395;50.752;4.268;2022-08-01T05:16:57;20.50;99.90
25482;DHT22;13395;50.752;4.268;2022-08-01T05:19:23;20.60;99.90
25482;DHT22;13395;50.752;4.268;2022-08-01T05:21:49;20.60;99.90
25482;DHT22;13395;50.752;4.268;2022-08-01T05:24:15;20.60;99.90
25482;DHT22;13395;50.752;4.268;2022-08-01T05:26:40;20.70;99.90
25482;DHT22;13395;50.752;4.268;2022-08-01T05:29:06;20.70;99.90
25482;DHT22;13395;50.752;4.268;2022-08-01T05:31:32;20.80;99.90
25482;DHT22;13395;50.752;4.268;2022-08-01T05:34:03;20.90;99.90
25482;DHT22;13395;50.752;4.268;2022-08-01T05:36:29;20.90;99.90
25482;DHT22;13395;50.752;4.268;2022-08-01T05:38:55;21.00;99.90
25482;DHT22;13395;50.752;4.268;2022-08-01T05:41:20;21.20;99.90
25482;DHT22;13395;50.752;4.268;2022-08-01T05:43:46;21.00;99.90
25482;DHT22;13395;50.752;4.268;2022-08-01T05:46:12;20.90;99.90
25482;DHT22;13395;50.752;4.268;2022-08-01T05:48:38;20.90;99.90
25482;DHT22;13395;50.752;4.268;2022-08-01T05:51:03;20.90;99.90
25482;DHT22;13395;50.752;4.268;2022-08-01T05:53:29;20.90;99.90
25482;DHT22;13395;50.752;4.268;2022-08-01T05:55:55;20.90;99.90
25482;DHT22;13395;50.752;4.268;2022-08-01T05:58:21;20.90;99.90
25482;DHT22;13395;50.752;4.268;2022-08-01T06:00:46;21.10;99.90
25482;DHT22;13395;50.752;4.268;2022-08-01T06:03:12;21.20;99.90
25482;DHT22;13395;50.752;4.268;2022-08-01T06:05:39;21.10;99.90
25482;DHT22;13395;50.752;4.268;2022-08-01T06:08:05;21.10;99.90
25482;DHT22;13395;50.752;4.268;2022-08-01T06:10:31;21.20;99.90
25482;DHT22;13395;50.752;4.268;2022-08-01T06:12:56;21.40;99.90
25482;DHT22;13395;50.752;4.268;2022-08-01T06:15:22;21.40;99.90
25482;DHT22;13395;50.752;4.268;2022-08-01T06:17:48;21.40;99.90
25482;DHT22;13395;50.752;4.268;2022-08-01T06:20:13;21.60;99.90
25482;DHT22;13395;50.752;4.268;2022-08-01T06:22:39;21.80;99.90
25482;DHT22;13395;50.752;4.268;2022-08-01T06:25:05;21.90;99.90
25482;DHT22;13395;50.752;4.268;2022-08-01T06:27:34;21.90;99.90
25482;DHT22;13395;50.752;4.268;2022-08-01T06:29:59;22.10;99.90
25482;DHT22;13395;50.752;4.268;2022-08-01T06:32:25;22.10;99.90
25482;DHT22;13395;50.752;4.268;2022-08-01T06:34:52;22.20;99.90
25482;DHT22;13395;50.752;4.268;2022-08-01T06:37:18;22.20;99.90
25482;DHT22;13395;50.752;4.268;2022-08-01T06:39:43;22.20;99.90
25482;DHT22;13395;50.752;4.268;2022-08-01T06:42:09;22.30;99.90
25482;DHT22;13395;50.752;4.268;2022-08-01T06:44:35;22.50;99.90
25482;DHT22;13395;50.752;4.268;2022-08-01T06:47:01;22.60;99.90
25482;DHT22;13395;50.752;4.268;2022-08-01T06:49:27;22.80;99.90
25482;DHT22;13395;50.752;4.268;2022-08-01T06:51:52;22.60;99.90
25482;DHT22;13395;50.752;4.268;2022-08-01T06:54:18;22.50;99.90
25482;DHT22;13395;50.752;4.268;2022-08-01T06:56:43;22.40;99.90
25482;DHT22;13395;50.752;4.268;2022-08-01T06:59:09;22.50;99.90
25482;DHT22;13395;50.752;4.268;2022-08-01T07:01:35;22.70;99.90
25482;DHT22;13395;50.752;4.268;2022-08-01T07:04:00;22.90;99.90
25482;DHT22;13395;50.752;4.268;2022-08-01T07:06:26;23.10;99.90
25482;DHT22;13395;50.752;4.268;2022-08-01T07:08:52;23.10;99.90
25482;DHT22;13395;50.752;4.268;2022-08-01T07:11:20;23.00;99.90
25482;DHT22;13395;50.752;4.268;2022-08-01T07:13:46;23.10;99.90
25482;DHT22;13395;50.752;4.268;2022-08-01T07:16:16;23.20;99.90
25482;DHT22;13395;50.752;4.268;2022-08-01T07:18:42;23.30;99.90
25482;DHT22;13395;50.752;4.268;2022-08-01T07:21:08;23.20;99.90
25482;DHT22;13395;50.752;4.268;2022-08-01T07:23:34;23.00;99.90
25482;DHT22;13395;50.752;4.268;2022-08-01T07:26:00;23.20;99.90
25482;DHT22;13395;50.752;4.268;2022-08-01T07:28:29;23.20;99.90
25482;DHT22;13395;50.752;4.268;2022-08-01T07:30:55;23.30;99.90
25482;DHT22;13395;50.752;4.268;2022-08-01T07:33:21;23.30;99.90
25482;DHT22;13395;50.752;4.268;2022-08-01T07:35:47;23.30;99.90
25482;DHT22;13395;50.752;4.268;2022-08-01T07:38:13;23.30;99.90
25482;DHT22;13395;50.752;4.268;2022-08-01T07:40:42;23.40;99.90
25482;DHT22;13395;50.752;4.268;2022-08-01T07:43:09;23.60;99.90
25482;DHT22;13395;50.752;4.268;2022-08-01T07:45:35;23.70;99.90
25482;DHT22;13395;50.752;4.268;2022-08-01T07:48:05;23.60;99.90
25482;DHT22;13395;50.752;4.268;2022-08-01T07:50:31;23.60;99.90
25482;DHT22;13395;50.752;4.268;2022-08-01T07:52:57;23.80;99.90
25482;DHT22;13395;50.752;4.268;2022-08-01T07:55:23;24.20;99.90
25482;DHT22;13395;50.752;4.268;2022-08-01T07:57:48;24.20;99.90
25482;DHT22;13395;50.752;4.268;2022-08-01T08:00:14;24.70;99.90
25482;DHT22;13395;50.752;4.268;2022-08-01T08:02:40;24.80;99.90
25482;DHT22;13395;50.752;4.268;2022-08-01T08:05:06;24.70;99.90
25482;DHT22;13395;50.752;4.268;2022-08-01T08:07:32;24.30;99.90
25482;DHT22;13395;50.752;4.268;2022-08-01T08:09:58;24.60;99.90
25482;DHT22;13395;50.752;4.268;2022-08-01T08:12:24;24.70;99.90
25482;DHT22;13395;50.752;4.268;2022-08-01T08:14:50;25.00;99.90
25482;DHT22;13395;50.752;4.268;2022-08-01T08:17:16;25.60;99.90
25482;DHT22;13395;50.752;4.268;2022-08-01T08:19:41;26.00;99.90
25482;DHT22;13395;50.752;4.268;2022-08-01T08:22:07;26.60;99.90
25482;DHT22;13395;50.752;4.268;2022-08-01T08:24:34;27.10;99.90
25482;DHT22;13395;50.752;4.268;2022-08-01T08:27:01;27.20;99.90
25482;DHT22;13395;50.752;4.268;2022-08-01T08:29:28;27.30;99.90
25482;DHT22;13395;50.752;4.268;2022-08-01T08:31:56;27.40;99.90
25482;DHT22;13395;50.752;4.268;2022-08-01T08:34:21;27.60;99.30
25482;DHT22;13395;50.752;4.268;2022-08-01T08:36:48;27.60;99.20
25482;DHT22;13395;50.752;4.268;2022-08-01T08:39:14;27.90;98.40
25482;DHT22;13395;50.752;4.268;2022-08-01T08:41:40;28.30;97.70
25482;DHT22;13395;50.752;4.268;2022-08-01T08:44:07;28.60;96.50
25482;DHT22;13395;50.752;4.268;2022-08-01T08:46:33;28.80;95.20
25482;DHT22;13395;50.752;4.268;2022-08-01T08:49:02;28.50;95.20
25482;DHT22;13395;50.752;4.268;2022-08-01T08:51:30;28.50;95.60
25482;DHT22;13395;50.752;4.268;2022-08-01T08:53:58;28.30;95.20
25482;DHT22;13395;50.752;4.268;2022-08-01T08:56:25;28.00;96.00
25482;DHT22;13395;50.752;4.268;2022-08-01T08:58:51;27.30;95.80
25482;DHT22;13395;50.752;4.268;2022-08-01T09:01:17;26.60;96.70
25482;DHT22;13395;50.752;4.268;2022-08-01T09:03:44;26.70;97.60
25482;DHT22;13395;50.752;4.268;2022-08-01T09:06:10;26.30;99.00
25482;DHT22;13395;50.752;4.268;2022-08-01T09:08:36;26.80;98.30
25482;DHT22;13395;50.752;4.268;2022-08-01T09:11:03;27.70;96.90
25482;DHT22;13395;50.752;4.268;2022-08-01T09:13:29;27.80;95.70
25482;DHT22;13395;50.752;4.268;2022-08-01T09:15:56;29.00;94.90
25482;DHT22;13395;50.752;4.268;2022-08-01T09:18:38;30.60;92.00
25482;DHT22;13395;50.752;4.268;2022-08-01T09:23:32;35.10;76.90
25482;DHT22;13395;50.752;4.268;2022-08-01T09:25:59;35.70;72.70
25482;DHT22;13395;50.752;4.268;2022-08-01T09:28:30;36.20;68.80
25482;DHT22;13395;50.752;4.268;2022-08-01T09:30:57;35.60;67.00
25482;DHT22;13395;50.752;4.268;2022-08-01T09:33:23;35.20;70.10
25482;DHT22;13395;50.752;4.268;2022-08-01T09:35:56;36.00;68.00
25482;DHT22;13395;50.752;4.268;2022-08-01T09:38:23;37.30;64.70
25482;DHT22;13395;50.752;4.268;2022-08-01T09:40:53;38.00;60.00
25482;DHT22;13395;50.752;4.268;2022-08-01T09:43:22;38.80;58.30
25482;DHT22;13395;50.752;4.268;2022-08-01T09:45:48;38.80;56.90
25482;DHT22;13395;50.752;4.268;2022-08-01T09:48:14;40.10;54.40
25482;DHT22;13395;50.752;4.268;2022-08-01T09:50:45;40.40;53.30
25482;DHT22;13395;50.752;4.268;2022-08-01T09:53:11;40.40;51.80
25482;DHT22;13395;50.752;4.268;2022-08-01T09:55:38;39.80;50.60
25482;DHT22;13395;50.752;4.268;2022-08-01T09:58:04;37.50;53.40
25482;DHT22;13395;50.752;4.268;2022-08-01T10:00:31;37.30;55.50
25482;DHT22;13395;50.752;4.268;2022-08-01T10:02:58;36.50;57.10
25482;DHT22;13395;50.752;4.268;2022-08-01T10:05:31;34.90;57.80
25482;DHT22;13395;50.752;4.268;2022-08-01T10:08:03;33.20;62.00
25482;DHT22;13395;50.752;4.268;2022-08-01T10:10:30;32.20;65.50
25482;DHT22;13395;50.752;4.268;2022-08-01T10:12:58;31.70;65.50
25482;DHT22;13395;50.752;4.268;2022-08-01T10:15:28;31.40;65.70
25482;DHT22;13395;50.752;4.268;2022-08-01T10:18:00;30.80;67.20
25482;DHT22;13395;50.752;4.268;2022-08-01T10:20:32;30.20;71.00
25482;DHT22;13395;50.752;4.268;2022-08-01T10:23:02;30.30;69.30
25482;DHT22;13395;50.752;4.268;2022-08-01T10:25:29;30.30;71.10
25482;DHT22;13395;50.752;4.268;2022-08-01T10:27:59;30.90;71.40
25482;DHT22;13395;50.752;4.268;2022-08-01T10:30:26;30.80;68.20
25482;DHT22;13395;50.752;4.268;2022-08-01T10:32:52;30.90;69.40
25482;DHT22;13395;50.752;4.268;2022-08-01T10:35:19;30.60;68.80
25482;DHT22;13395;50.752;4.268;2022-08-01T10:37:45;30.60;69.40
25482;DHT22;13395;50.752;4.268;2022-08-01T10:40:13;31.30;70.20
25482;DHT22;13395;50.752;4.268;2022-08-01T10:42:43;31.30;68.00
25482;DHT22;13395;50.752;4.268;2022-08-01T10:45:13;31.30;67.40
25482;DHT22;13395;50.752;4.268;2022-08-01T10:47:51;31.40;68.10
25482;DHT22;13395;50.752;4.268;2022-08-01T10:50:24;31.00;68.30
25482;DHT22;13395;50.752;4.268;2022-08-01T10:53:13;31.40;69.30
25482;DHT22;13395;50.752;4.268;2022-08-01T10:56:04;31.90;69.10
25482;DHT22;13395;50.752;4.268;2022-08-01T11:01:21;32.20;67.50
25482;DHT22;13395;50.752;4.268;2022-08-01T11:08:58;31.80;69.60
25482;DHT22;13395;50.752;4.268;2022-08-01T11:11:25;32.40;66.30
25482;DHT22;13395;50.752;4.268;2022-08-01T11:16:31;34.20;64.10
25482;DHT22;13395;50.752;4.268;2022-08-01T11:18:57;35.60;60.40
25482;DHT22;13395;50.752;4.268;2022-08-01T11:27:20;34.30;59.50
25482;DHT22;13395;50.752;4.268;2022-08-01T11:32:46;33.80;62.20
25482;DHT22;13395;50.752;4.268;2022-08-01T11:35:11;34.80;60.70
25482;DHT22;13395;50.752;4.268;2022-08-01T11:37:38;36.00;58.90
25482;DHT22;13395;50.752;4.268;2022-08-01T11:40:15;36.10;57.90
25482;DHT22;13395;50.752;4.268;2022-08-01T11:42:40;36.80;56.80
25482;DHT22;13395;50.752;4.268;2022-08-01T11:45:06;36.40;56.10
25482;DHT22;13395;50.752;4.268;2022-08-01T11:47:45;35.50;56.70
25482;DHT22;13395;50.752;4.268;2022-08-01T11:50:33;35.00;59.70
25482;DHT22;13395;50.752;4.268;2022-08-01T11:53:00;35.20;59.80
25482;DHT22;13395;50.752;4.268;2022-08-01T11:55:27;35.80;57.80
25482;DHT22;13395;50.752;4.268;2022-08-01T11:58:07;35.70;57.80
25482;DHT22;13395;50.752;4.268;2022-08-01T12:00:33;36.10;57.30
25482;DHT22;13395;50.752;4.268;2022-08-01T12:03:04;37.10;55.60
25482;DHT22;13395;50.752;4.268;2022-08-01T12:05:32;37.90;54.80
25482;DHT22;13395;50.752;4.268;2022-08-01T12:07:59;37.50;53.60
25482;DHT22;13395;50.752;4.268;2022-08-01T12:10:28;37.00;53.60
25482;DHT22;13395;50.752;4.268;2022-08-01T12:13:00;36.00;54.10
25482;DHT22;13395;50.752;4.268;2022-08-01T12:15:37;34.80;55.60
25482;DHT22;13395;50.752;4.268;2022-08-01T12:18:05;34.00;57.60
25482;DHT22;13395;50.752;4.268;2022-08-01T12:20:33;34.60;58.40
25482;DHT22;13395;50.752;4.268;2022-08-01T12:23:07;36.20;57.20
25482;DHT22;13395;50.752;4.268;2022-08-01T12:25:34;36.10;55.70
25482;DHT22;13395;50.752;4.268;2022-08-01T12:28:02;35.80;56.50
25482;DHT22;13395;50.752;4.268;2022-08-01T12:30:28;35.30;56.90
25482;DHT22;13395;50.752;4.268;2022-08-01T12:32:56;34.60;56.90
25482;DHT22;13395;50.752;4.268;2022-08-01T12:35:27;34.80;58.00
25482;DHT22;13395;50.752;4.268;2022-08-01T12:37:59;35.20;56.90
25482;DHT22;13395;50.752;4.268;2022-08-01T12:40:32;35.10;57.70
25482;DHT22;13395;50.752;4.268;2022-08-01T12:43:02;34.70;57.80
25482;DHT22;13395;50.752;4.268;2022-08-01T12:45:39;34.00;57.00
25482;DHT22;13395;50.752;4.268;2022-08-01T12:48:09;33.10;58.10
25482;DHT22;13395;50.752;4.268;2022-08-01T12:50:38;32.80;59.70
25482;DHT22;13395;50.752;4.268;2022-08-01T12:53:05;33.10;58.60
25482;DHT22;13395;50.752;4.268;2022-08-01T12:55:31;33.70;58.10
25482;DHT22;13395;50.752;4.268;2022-08-01T12:58:11;35.30;56.00
25482;DHT22;13395;50.752;4.268;2022-08-01T13:00:38;36.80;54.00
25482;DHT22;13395;50.752;4.268;2022-08-01T13:03:06;37.50;53.10
25482;DHT22;13395;50.752;4.268;2022-08-01T13:05:42;36.40;52.20
25482;DHT22;13395;50.752;4.268;2022-08-01T13:08:13;36.40;53.40
25482;DHT22;13395;50.752;4.268;2022-08-01T13:10:39;36.20;54.10
25482;DHT22;13395;50.752;4.268;2022-08-01T13:13:05;36.10;53.80
25482;DHT22;13395;50.752;4.268;2022-08-01T13:15:33;35.30;52.70
25482;DHT22;13395;50.752;4.268;2022-08-01T13:18:21;34.60;55.60
25482;DHT22;13395;50.752;4.268;2022-08-01T13:20:46;33.50;55.90
25482;DHT22;13395;50.752;4.268;2022-08-01T13:23:13;32.20;58.60
25482;DHT22;13395;50.752;4.268;2022-08-01T13:28:18;31.00;60.90
25482;DHT22;13395;50.752;4.268;2022-08-01T13:31:01;31.20;61.80
25482;DHT22;13395;50.752;4.268;2022-08-01T13:33:28;31.50;61.10
25482;DHT22;13395;50.752;4.268;2022-08-01T13:36:05;31.50;60.70
25482;DHT22;13395;50.752;4.268;2022-08-01T13:38:30;30.90;61.70
25482;DHT22;13395;50.752;4.268;2022-08-01T13:41:15;30.70;62.50
25482;DHT22;13395;50.752;4.268;2022-08-01T13:43:41;30.30;62.60
25482;DHT22;13395;50.752;4.268;2022-08-01T13:46:06;30.10;63.40
25482;DHT22;13395;50.752;4.268;2022-08-01T13:48:32;30.00;64.50
25482;DHT22;13395;50.752;4.268;2022-08-01T13:50:58;29.90;63.90
25482;DHT22;13395;50.752;4.268;2022-08-01T13:53:24;30.00;65.00
25482;DHT22;13395;50.752;4.268;2022-08-01T13:55:50;30.20;65.00
25482;DHT22;13395;50.752;4.268;2022-08-01T13:58:15;30.30;64.20
25482;DHT22;13395;50.752;4.268;2022-08-01T14:00:41;30.30;65.20
25482;DHT22;13395;50.752;4.268;2022-08-01T14:03:07;30.10;64.00
25482;DHT22;13395;50.752;4.268;2022-08-01T14:05:35;30.00;64.30
25482;DHT22;13395;50.752;4.268;2022-08-01T14:08:01;29.80;63.80
25482;DHT22;13395;50.752;4.268;2022-08-01T14:10:28;29.70;64.20
25482;DHT22;13395;50.752;4.268;2022-08-01T14:12:55;29.80;64.00
25482;DHT22;13395;50.752;4.268;2022-08-01T14:15:20;29.80;65.90
25482;DHT22;13395;50.752;4.268;2022-08-01T14:17:46;29.30;65.00
25482;DHT22;13395;50.752;4.268;2022-08-01T14:20:11;29.50;67.20
25482;DHT22;13395;50.752;4.268;2022-08-01T14:22:37;29.70;64.90
25482;DHT22;13395;50.752;4.268;2022-08-01T14:25:05;30.00;65.80
25482;DHT22;13395;50.752;4.268;2022-08-01T14:27:30;30.50;65.40
25482;DHT22;13395;50.752;4.268;2022-08-01T14:29:57;30.60;63.50
25482;DHT22;13395;50.752;4.268;2022-08-01T14:32:22;30.90;62.40
25482;DHT22;13395;50.752;4.268;2022-08-01T14:34:48;30.80;63.50
25482;DHT22;13395;50.752;4.268;2022-08-01T14:37:15;30.50;62.50
25482;DHT22;13395;50.752;4.268;2022-08-01T14:39:40;30.10;62.50
25482;DHT22;13395;50.752;4.268;2022-08-01T14:42:06;29.90;63.60
25482;DHT22;13395;50.752;4.268;2022-08-01T14:44:31;29.90;64.20
25482;DHT22;13395;50.752;4.268;2022-08-01T14:46:57;29.40;64.40
25482;DHT22;13395;50.752;4.268;2022-08-01T14:49:23;29.70;65.10
25482;DHT22;13395;50.752;4.268;2022-08-01T14:51:48;29.60;63.90
25482;DHT22;13395;50.752;4.268;2022-08-01T14:54:14;29.70;63.80
25482;DHT22;13395;50.752;4.268;2022-08-01T14:56:40;30.10;65.20
25482;DHT22;13395;50.752;4.268;2022-08-01T14:59:06;30.20;62.50
25482;DHT22;13395;50.752;4.268;2022-08-01T15:01:31;30.00;63.40
25482;DHT22;13395;50.752;4.268;2022-08-01T15:03:57;30.10;63.40
25482;DHT22;13395;50.752;4.268;2022-08-01T15:06:23;30.20;63.20
25482;DHT22;13395;50.752;4.268;2022-08-01T15:08:48;30.40;63.70
25482;DHT22;13395;50.752;4.268;2022-08-01T15:11:14;30.50;64.40
25482;DHT22;13395;50.752;4.268;2022-08-01T15:13:40;30.80;62.90
25482;DHT22;13395;50.752;4.268;2022-08-01T15:16:05;30.60;64.00
25482;DHT22;13395;50.752;4.268;2022-08-01T15:18:31;30.80;63.20
25482;DHT22;13395;50.752;4.268;2022-08-01T15:20:57;30.80;60.40
25482;DHT22;13395;50.752;4.268;2022-08-01T15:23:22;30.80;61.40
25482;DHT22;13395;50.752;4.268;2022-08-01T15:25:48;30.50;60.20
25482;DHT22;13395;50.752;4.268;2022-08-01T15:28:16;30.30;62.30
25482;DHT22;13395;50.752;4.268;2022-08-01T15:30:42;30.10;61.40
25482;DHT22;13395;50.752;4.268;2022-08-01T15:33:07;29.70;62.40
25482;DHT22;13395;50.752;4.268;2022-08-01T15:35:34;29.40;62.80
25482;DHT22;13395;50.752;4.268;2022-08-01T15:37:59;29.20;63.20
25482;DHT22;13395;50.752;4.268;2022-08-01T15:40:25;29.10;63.70
25482;DHT22;13395;50.752;4.268;2022-08-01T15:42:52;29.30;64.50
25482;DHT22;13395;50.752;4.268;2022-08-01T15:45:17;29.40;64.40
25482;DHT22;13395;50.752;4.268;2022-08-01T15:47:44;29.30;63.00
25482;DHT22;13395;50.752;4.268;2022-08-01T15:50:10;29.00;63.70
25482;DHT22;13395;50.752;4.268;2022-08-01T15:52:35;28.90;65.00
25482;DHT22;13395;50.752;4.268;2022-08-01T15:55:01;29.00;64.40
25482;DHT22;13395;50.752;4.268;2022-08-01T15:57:27;29.10;64.50
25482;DHT22;13395;50.752;4.268;2022-08-01T15:59:52;29.00;63.80
25482;DHT22;13395;50.752;4.268;2022-08-01T16:02:18;28.90;63.80
25482;DHT22;13395;50.752;4.268;2022-08-01T16:04:44;28.90;64.20